createdAt,value
2022-12-08T00:00:18.274Z,14.17
2022-12-08T00:03:04.933Z,14.53
2022-12-08T00:05:51.622Z,14.17
2022-12-08T00:08:38.168Z,14.13
2022-12-08T00:11:24.673Z,13.67
2022-12-08T00:14:11.365Z,13.47
2022-12-08T00:16:57.947Z,14.20
2022-12-08T00:19:44.532Z,14.77
2022-12-08T00:22:31.034Z,14.07
2022-12-08T00:25:17.566Z,14.77
2022-12-08T00:28:04.145Z,13.80
2022-12-08T00:30:50.684Z,14.53
2022-12-08T00:33:37.216Z,15.43
2022-12-08T00:36:23.725Z,14.63
2022-12-08T00:39:10.241Z,14.60
2022-12-08T00:41:56.985Z,15.10
2022-12-08T00:44:43.493Z,14.50
2022-12-08T00:47:30.036Z,16.07
2022-12-08T00:50:16.499Z,15.63
2022-12-08T00:53:03.054Z,14.70
2022-12-08T00:55:49.561Z,15.03
2022-12-08T00:58:36.096Z,15.73
2022-12-08T01:01:22.731Z,15.17
2022-12-08T01:04:09.367Z,16.23
2022-12-08T01:06:55.870Z,16.27
2022-12-08T01:09:42.425Z,16.10
2022-12-08T01:12:28.926Z,15.30
2022-12-08T01:15:15.440Z,15.87
2022-12-08T01:18:01.958Z,16.57
2022-12-08T01:20:48.504Z,16.07
2022-12-08T01:23:35.023Z,14.63
2022-12-08T01:26:21.568Z,15.40
2022-12-08T01:29:08.071Z,16.30
2022-12-08T01:31:54.571Z,15.13
2022-12-08T01:34:41.133Z,15.23
2022-12-08T01:37:27.615Z,16.87
2022-12-08T01:40:14.143Z,15.70
2022-12-08T01:43:00.639Z,15.30
2022-12-08T01:45:47.196Z,16.07
2022-12-08T01:48:33.750Z,15.10
2022-12-08T01:51:20.257Z,14.33
2022-12-08T01:54:06.815Z,15.03
2022-12-08T01:56:53.339Z,14.37
2022-12-08T01:59:39.876Z,15.50
2022-12-08T02:02:26.445Z,15.73
2022-12-08T02:05:12.994Z,15.77
2022-12-08T02:07:59.588Z,14.90
2022-12-08T02:10:46.141Z,15.30
2022-12-08T02:13:32.662Z,15.73
2022-12-08T02:16:19.191Z,14.93
2022-12-08T02:19:29.777Z,14.10
2022-12-08T02:22:12.221Z,15.23
2022-12-08T02:24:58.743Z,16.17
2022-12-08T02:27:45.286Z,15.13
2022-12-08T02:30:31.804Z,15.47
2022-12-08T02:33:18.387Z,14.60
2022-12-08T02:36:04.852Z,15.63
2022-12-08T02:38:51.368Z,14.67
2022-12-08T02:41:37.879Z,14.93
2022-12-08T02:44:24.389Z,14.87
2022-12-08T02:47:10.931Z,14.77
2022-12-08T02:49:57.443Z,14.00
2022-12-08T02:52:44.000Z,15.03
2022-12-08T02:55:30.507Z,14.60
2022-12-08T02:58:16.991Z,15.23
2022-12-08T03:01:03.559Z,15.07
2022-12-08T03:03:50.185Z,16.00
2022-12-08T03:06:36.701Z,14.40
2022-12-08T03:09:23.239Z,14.27
2022-12-08T03:12:09.753Z,13.87
2022-12-08T03:14:56.243Z,18.63
2022-12-08T03:17:42.748Z,15.37
2022-12-08T03:20:29.262Z,15.27
2022-12-08T03:23:15.809Z,15.00
2022-12-08T03:26:02.329Z,14.97
2022-12-08T03:28:48.919Z,15.00
2022-12-08T03:31:35.515Z,15.57
2022-12-08T03:34:22.136Z,15.63
2022-12-08T03:37:08.640Z,14.53
2022-12-08T03:39:55.339Z,17.03
2022-12-08T03:42:41.857Z,16.30
2022-12-08T03:45:28.395Z,16.37
2022-12-08T03:48:14.891Z,15.77
2022-12-08T03:51:01.412Z,16.60
2022-12-08T03:53:47.954Z,16.67
2022-12-08T03:56:34.467Z,17.43
2022-12-08T03:59:21.002Z,16.73
2022-12-08T04:02:07.600Z,15.83
2022-12-08T04:04:54.192Z,17.80
2022-12-08T04:07:40.804Z,17.53
2022-12-08T04:10:27.362Z,17.80
2022-12-08T04:13:13.903Z,18.57
2022-12-08T04:16:01.718Z,17.13
2022-12-08T04:18:48.442Z,18.37
2022-12-08T04:21:34.956Z,16.37
2022-12-08T04:24:21.525Z,17.63
2022-12-08T04:27:08.196Z,16.57
2022-12-08T04:29:54.762Z,17.60
2022-12-08T04:32:45.876Z,17.00
2022-12-08T04:35:33.982Z,18.63
2022-12-08T04:38:20.491Z,19.37
2022-12-08T04:41:07.030Z,21.07
2022-12-08T04:43:53.690Z,19.87
2022-12-08T04:46:43.369Z,19.80
2022-12-08T04:49:30.409Z,18.37
2022-12-08T04:52:16.919Z,19.03
2022-12-08T04:55:03.491Z,19.93
2022-12-08T04:57:50.004Z,17.80
2022-12-08T05:00:36.537Z,20.70
2022-12-08T05:03:28.560Z,21.63
2022-12-08T05:06:15.519Z,20.00
2022-12-08T05:09:02.031Z,17.67
2022-12-08T05:11:49.202Z,17.93
2022-12-08T05:14:35.956Z,19.07
2022-12-08T05:17:22.506Z,18.47
2022-12-08T05:20:09.110Z,18.07
2022-12-08T05:22:55.658Z,28.83
2022-12-08T05:25:42.187Z,23.03
2022-12-08T05:28:44.361Z,18.63
2022-12-08T05:31:31.071Z,17.57
2022-12-08T05:34:17.641Z,18.30
2022-12-08T05:37:04.195Z,16.93
2022-12-08T05:39:50.672Z,18.57
2022-12-08T05:42:37.220Z,17.77
2022-12-08T05:45:23.724Z,17.23
2022-12-08T05:48:10.270Z,17.63
2022-12-08T05:50:56.784Z,17.17
2022-12-08T05:53:43.293Z,15.57
2022-12-08T05:56:29.813Z,16.30
2022-12-08T05:59:16.359Z,17.03
2022-12-08T06:02:03.032Z,18.23
2022-12-08T06:04:49.685Z,16.47
2022-12-08T06:07:36.219Z,16.97
2022-12-08T06:10:22.763Z,18.93
2022-12-08T06:13:09.284Z,15.20
2022-12-08T06:15:55.838Z,15.90
2022-12-08T06:18:42.351Z,17.07
2022-12-08T06:21:28.881Z,15.80
2022-12-08T06:24:15.367Z,15.73
2022-12-08T06:27:01.884Z,15.60
2022-12-08T06:29:48.412Z,15.57
2022-12-08T06:32:35.042Z,17.03
2022-12-08T06:35:21.575Z,14.83
2022-12-08T06:38:08.130Z,15.57
2022-12-08T06:40:54.644Z,14.73
2022-12-08T06:43:41.496Z,14.00
2022-12-08T06:46:28.076Z,13.57
2022-12-08T06:49:14.657Z,13.27
2022-12-08T06:52:01.166Z,15.17
2022-12-08T06:54:47.721Z,17.17
2022-12-08T06:57:34.236Z,11.87
2022-12-08T07:00:20.800Z,11.47
2022-12-08T07:03:07.318Z,12.27
2022-12-08T07:05:53.810Z,12.27
2022-12-08T07:08:40.326Z,12.83
2022-12-08T07:11:26.860Z,12.13
2022-12-08T07:14:13.418Z,11.60
2022-12-08T07:16:59.991Z,12.57
2022-12-08T07:19:46.542Z,12.90
2022-12-08T07:22:33.059Z,13.70
2022-12-08T07:25:19.594Z,13.57
2022-12-08T07:28:06.114Z,19.83
2022-12-08T07:30:52.729Z,20.43
2022-12-08T07:33:39.288Z,21.27
2022-12-08T07:36:25.880Z,19.10
2022-12-08T07:39:12.413Z,19.50
2022-12-08T07:41:58.920Z,16.87
2022-12-08T07:44:45.465Z,14.83
2022-12-08T07:47:33.027Z,15.13
2022-12-08T07:50:19.568Z,21.27
2022-12-08T07:53:06.093Z,22.40
2022-12-08T07:55:52.591Z,17.10
2022-12-08T07:58:39.145Z,16.50
2022-12-08T08:01:25.770Z,24.63
2022-12-08T08:04:12.588Z,17.23
2022-12-08T08:06:59.201Z,23.83
2022-12-08T08:09:45.840Z,16.33
2022-12-08T08:12:33.077Z,20.27
2022-12-08T08:15:19.851Z,17.80
2022-12-08T08:18:06.315Z,20.00
2022-12-08T08:20:52.897Z,21.17
2022-12-08T08:23:39.456Z,20.00
2022-12-08T08:26:27.161Z,18.33
2022-12-08T08:29:13.899Z,18.57
2022-12-08T08:32:00.371Z,18.30
2022-12-08T08:34:46.888Z,23.20
2022-12-08T08:37:33.398Z,20.57
2022-12-08T08:40:19.904Z,13.57
2022-12-08T08:43:06.419Z,12.10
2022-12-08T08:45:52.949Z,18.37
2022-12-08T08:48:39.491Z,12.23
2022-12-08T08:51:26.023Z,14.83
2022-12-08T08:54:12.532Z,15.77
2022-12-08T08:56:59.065Z,14.43
2022-12-08T08:59:45.585Z,12.90
2022-12-08T09:02:32.109Z,12.50
2022-12-08T09:05:18.656Z,15.00
2022-12-08T09:08:05.209Z,14.30
2022-12-08T09:10:51.830Z,14.67
2022-12-08T09:13:38.413Z,14.53
2022-12-08T09:16:25.077Z,14.60
2022-12-08T09:19:11.728Z,15.13
2022-12-08T09:21:58.258Z,15.63
2022-12-08T09:24:44.787Z,16.67
2022-12-08T09:27:31.306Z,13.50
2022-12-08T09:30:17.828Z,13.30
2022-12-08T09:33:04.377Z,13.73
2022-12-08T09:35:50.896Z,14.00
2022-12-08T09:38:37.441Z,13.53
2022-12-08T09:41:23.961Z,14.97
2022-12-08T09:44:10.492Z,15.20
2022-12-08T09:46:57.062Z,14.50
2022-12-08T09:49:43.671Z,13.90
2022-12-08T09:52:30.201Z,14.57
2022-12-08T09:55:16.882Z,14.33
2022-12-08T09:58:03.400Z,14.10
2022-12-08T10:00:49.920Z,15.37
2022-12-08T10:03:36.436Z,13.33
2022-12-08T10:06:22.980Z,16.63
2022-12-08T10:09:12.489Z,15.97
2022-12-08T10:11:59.292Z,16.10
2022-12-08T10:14:45.810Z,17.47
2022-12-08T10:17:32.333Z,22.03
2022-12-08T10:20:18.890Z,19.80
2022-12-08T10:23:05.461Z,20.33
2022-12-08T10:25:52.010Z,17.30
2022-12-08T10:28:44.412Z,19.07
2022-12-08T10:31:31.866Z,17.40
2022-12-08T10:34:18.426Z,17.87
2022-12-08T10:37:04.985Z,18.20
2022-12-08T10:39:51.498Z,17.80
2022-12-08T10:42:38.034Z,19.10
2022-12-08T10:45:24.550Z,18.80
2022-12-08T10:48:12.072Z,18.00
2022-12-08T10:50:58.622Z,18.20
2022-12-08T10:53:45.252Z,17.93
2022-12-08T10:56:31.783Z,19.03
2022-12-08T10:59:18.473Z,18.67
2022-12-08T11:02:05.145Z,16.67
2022-12-08T11:04:51.804Z,17.40
2022-12-08T11:07:38.370Z,15.33
2022-12-08T11:10:24.933Z,17.17
2022-12-08T11:13:11.448Z,16.20
2022-12-08T11:15:58.058Z,13.13
2022-12-08T11:18:44.758Z,13.63
2022-12-08T11:21:31.299Z,12.60
2022-12-08T11:24:17.833Z,12.60
2022-12-08T11:27:04.337Z,12.00
2022-12-08T11:29:50.881Z,12.37
2022-12-08T11:32:37.404Z,13.10
2022-12-08T11:35:24.023Z,13.87
2022-12-08T11:38:21.130Z,13.00
2022-12-08T11:41:14.012Z,11.83
2022-12-08T11:44:02.440Z,12.00
2022-12-08T11:46:48.997Z,11.80
2022-12-08T11:49:35.515Z,12.67
2022-12-08T11:52:22.011Z,12.17
2022-12-08T11:55:08.518Z,11.83
2022-12-08T11:57:55.115Z,11.63
2022-12-08T12:00:41.687Z,12.80
2022-12-08T12:03:28.405Z,12.03
2022-12-08T12:09:21.501Z,11.47
2022-12-08T12:12:08.041Z,13.37
2022-12-08T12:14:54.544Z,13.67
2022-12-08T12:17:41.097Z,13.47
2022-12-08T12:20:27.603Z,13.60
2022-12-08T12:23:14.151Z,13.60
2022-12-08T12:26:00.668Z,13.10
2022-12-08T12:28:47.229Z,11.30
2022-12-08T12:31:33.750Z,12.83
2022-12-08T12:34:20.290Z,11.57
2022-12-08T12:37:06.781Z,12.10
2022-12-08T12:39:53.338Z,13.23
2022-12-08T12:42:39.864Z,12.30
2022-12-08T12:45:26.415Z,12.37
2022-12-08T12:48:12.937Z,11.70
2022-12-08T12:50:59.468Z,11.30
2022-12-08T12:53:45.996Z,11.90
2022-12-08T12:56:32.549Z,11.43
2022-12-08T12:59:19.065Z,11.87
2022-12-08T13:02:05.812Z,11.83
2022-12-08T13:04:52.351Z,11.27
2022-12-08T13:07:38.923Z,12.43
2022-12-08T13:10:25.464Z,11.30
2022-12-08T13:13:12.152Z,11.70
2022-12-08T13:15:58.669Z,11.60
2022-12-08T13:18:45.240Z,12.37
2022-12-08T13:21:31.766Z,13.10
2022-12-08T13:24:18.305Z,12.40
2022-12-08T13:27:04.835Z,14.63
2022-12-08T13:29:51.509Z,13.37
2022-12-08T13:33:09.451Z,13.27
2022-12-08T13:35:44.508Z,14.27
2022-12-08T13:38:30.999Z,13.13
2022-12-08T13:41:17.488Z,13.50
2022-12-08T13:45:03.679Z,14.77
2022-12-08T13:47:33.006Z,18.40
2022-12-08T13:51:15.909Z,15.17
2022-12-08T13:57:02.404Z,15.63
2022-12-08T13:59:36.524Z,15.27
2022-12-08T14:02:23.107Z,15.03
2022-12-08T14:05:17.999Z,15.10
2022-12-08T14:08:05.890Z,15.73
2022-12-08T14:10:52.404Z,16.93
2022-12-08T14:13:39.105Z,15.33
2022-12-08T14:16:25.709Z,15.67
2022-12-08T14:19:12.233Z,17.20
2022-12-08T14:21:58.754Z,15.90
2022-12-08T14:24:45.338Z,15.40
2022-12-08T14:27:31.851Z,15.37
2022-12-08T14:30:18.415Z,14.67
2022-12-08T14:33:04.917Z,15.20
2022-12-08T14:35:51.482Z,15.50
2022-12-08T14:38:38.075Z,15.83
2022-12-08T14:41:24.692Z,15.67
2022-12-08T14:44:11.204Z,16.77
2022-12-08T14:47:01.234Z,17.20
2022-12-08T14:49:51.784Z,16.67
2022-12-08T14:52:38.308Z,15.73
2022-12-08T14:55:24.820Z,14.70
2022-12-08T14:58:16.583Z,13.30
2022-12-08T15:01:03.226Z,12.47
2022-12-08T15:03:51.523Z,12.67
2022-12-08T15:06:38.291Z,13.37
2022-12-08T15:09:25.793Z,12.80
2022-12-08T15:12:12.326Z,13.67
2022-12-08T15:14:58.876Z,13.17
2022-12-08T15:17:45.400Z,13.57
2022-12-08T15:20:35.364Z,13.60
2022-12-08T15:23:22.217Z,13.57
2022-12-08T15:26:08.778Z,48.00
2022-12-08T15:28:55.256Z,57.97
2022-12-08T15:31:41.858Z,54.77
2022-12-08T15:34:28.453Z,56.70
2022-12-08T15:37:15.012Z,58.53
2022-12-08T15:40:01.566Z,45.47
2022-12-08T15:42:48.110Z,34.73
2022-12-08T15:45:34.647Z,24.40
2022-12-08T15:48:21.183Z,23.90
2022-12-08T15:51:07.699Z,24.63
2022-12-08T15:53:54.321Z,29.43
2022-12-08T15:56:50.680Z,21.27
2022-12-08T15:59:47.349Z,16.37
2022-12-08T16:02:56.403Z,32.83
2022-12-08T16:05:46.836Z,17.67
2022-12-08T16:08:56.339Z,23.93
2022-12-08T16:12:10.151Z,16.20
2022-12-08T16:18:03.543Z,16.77
2022-12-08T16:23:56.592Z,16.33
2022-12-08T16:27:51.140Z,13.53
2022-12-08T16:29:49.748Z,13.17
2022-12-08T16:32:36.271Z,55.77
2022-12-08T16:35:22.832Z,111.33
2022-12-08T16:38:09.324Z,98.47
2022-12-08T16:40:55.894Z,93.80
2022-12-08T16:43:42.408Z,42.77
2022-12-08T16:46:29.002Z,42.57
2022-12-08T16:49:15.575Z,41.20
2022-12-08T16:52:02.093Z,45.67
2022-12-08T16:54:48.603Z,31.03
2022-12-08T16:57:35.119Z,57.83
2022-12-08T17:00:21.666Z,68.73
2022-12-08T17:03:08.208Z,53.23
2022-12-08T17:05:54.759Z,61.67
2022-12-08T17:08:41.276Z,45.73
2022-12-08T17:11:28.016Z,29.07
2022-12-08T17:14:14.533Z,22.90
2022-12-08T17:17:01.151Z,20.60
2022-12-08T17:19:47.656Z,16.27
2022-12-08T17:22:34.205Z,18.43
2022-12-08T17:25:20.723Z,13.93
2022-12-08T17:28:07.254Z,16.03
2022-12-08T17:30:53.787Z,15.80
2022-12-08T17:33:40.279Z,15.20
2022-12-08T17:36:26.801Z,16.67
2022-12-08T17:39:18.048Z,16.73
2022-12-08T17:42:05.392Z,15.27
2022-12-08T17:44:51.900Z,21.23
2022-12-08T17:47:38.447Z,19.90
2022-12-08T17:50:24.956Z,16.47
2022-12-08T17:53:11.468Z,17.43
2022-12-08T17:55:57.960Z,16.50
2022-12-08T17:58:45.682Z,14.23
2022-12-08T18:01:34.062Z,14.80
2022-12-08T18:04:20.656Z,14.87
2022-12-08T18:07:07.211Z,17.63
2022-12-08T18:09:53.775Z,18.63
2022-12-08T18:12:40.382Z,16.17
2022-12-08T18:15:26.923Z,14.37
2022-12-08T18:18:13.470Z,12.40
2022-12-08T18:20:59.977Z,12.70
2022-12-08T18:23:46.681Z,13.67
2022-12-08T18:26:33.190Z,15.63
2022-12-08T18:29:19.742Z,14.13
2022-12-08T18:32:06.230Z,13.57
2022-12-08T18:34:52.910Z,11.40
2022-12-08T18:37:39.535Z,14.53
2022-12-08T18:40:26.133Z,14.33
2022-12-08T18:43:12.654Z,12.30
2022-12-08T18:45:59.223Z,13.60
2022-12-08T18:48:45.767Z,12.27
2022-12-08T18:51:32.296Z,12.67
2022-12-08T18:54:21.991Z,13.53
2022-12-08T18:57:11.016Z,17.60
2022-12-08T18:59:57.496Z,15.80
2022-12-08T19:02:44.156Z,13.47
2022-12-08T19:05:30.869Z,12.97
2022-12-08T19:08:17.435Z,13.87
2022-12-08T19:11:04.014Z,12.60
2022-12-08T19:13:50.540Z,13.93
2022-12-08T19:16:37.077Z,15.43
2022-12-08T19:19:23.591Z,15.60
2022-12-08T19:22:10.093Z,15.20
2022-12-08T19:24:56.715Z,16.53
2022-12-08T19:27:43.392Z,19.17
2022-12-08T19:30:29.916Z,20.57
2022-12-08T19:33:16.471Z,15.40
2022-12-08T19:36:02.992Z,15.07
2022-12-08T19:38:49.548Z,16.43
2022-12-08T19:41:36.052Z,14.17
2022-12-08T19:44:22.623Z,12.30
2022-12-08T19:47:09.176Z,13.07
2022-12-08T19:49:55.833Z,13.03
2022-12-08T19:52:42.352Z,14.60
2022-12-08T19:55:28.908Z,13.40
2022-12-08T19:58:15.576Z,13.33
2022-12-08T20:01:02.079Z,13.27
2022-12-08T20:03:48.579Z,13.97
2022-12-08T20:06:35.103Z,20.30
2022-12-08T20:09:21.679Z,15.03
2022-12-08T20:12:08.216Z,14.40
2022-12-08T20:14:54.803Z,12.90
2022-12-08T20:17:41.354Z,13.63
2022-12-08T20:20:27.926Z,15.17
2022-12-08T20:23:14.446Z,13.57
2022-12-08T20:26:01.030Z,12.97
2022-12-08T20:28:47.582Z,13.37
2022-12-08T20:31:34.279Z,13.30
2022-12-08T20:34:20.880Z,14.60
2022-12-08T20:37:07.447Z,11.37
2022-12-08T20:39:54.002Z,11.47
2022-12-08T20:42:40.568Z,12.73
2022-12-08T20:45:27.099Z,12.63
2022-12-08T20:48:13.803Z,11.70
2022-12-08T20:51:00.346Z,10.57
2022-12-08T20:53:47.091Z,10.83
2022-12-08T20:56:33.657Z,11.20
2022-12-08T20:59:20.217Z,11.43
2022-12-08T21:02:06.779Z,11.03
2022-12-08T21:04:53.505Z,11.00
2022-12-08T21:07:40.380Z,11.10
2022-12-08T21:10:27.071Z,11.53
2022-12-08T21:13:13.661Z,11.53
2022-12-08T21:16:00.356Z,12.67
2022-12-08T21:18:47.017Z,13.47
2022-12-08T21:21:33.553Z,11.00
2022-12-08T21:24:20.079Z,11.63
2022-12-08T21:27:06.681Z,12.60
2022-12-08T21:29:53.242Z,13.30
2022-12-08T21:32:40.059Z,11.00
2022-12-08T21:35:26.733Z,11.87
2022-12-08T21:38:13.356Z,12.43
2022-12-08T21:40:59.883Z,11.63
2022-12-08T21:43:46.601Z,12.63
2022-12-08T21:46:33.307Z,12.27
2022-12-08T21:49:20.212Z,11.70
2022-12-08T21:52:06.951Z,10.87
2022-12-08T21:54:53.596Z,10.13
2022-12-08T21:57:40.251Z,10.57
2022-12-08T22:00:27.024Z,9.80
2022-12-08T22:03:14.004Z,11.27
2022-12-08T22:06:00.883Z,9.67
2022-12-08T22:08:47.705Z,10.10
2022-12-08T22:11:34.452Z,10.50
2022-12-08T22:14:21.150Z,10.67
2022-12-08T22:17:07.993Z,10.73
2022-12-08T22:19:54.754Z,11.27
2022-12-08T22:22:41.358Z,10.50
2022-12-08T22:25:28.059Z,9.77
2022-12-08T22:28:14.806Z,9.63
2022-12-08T22:31:01.314Z,8.20
2022-12-08T22:33:47.803Z,8.63
2022-12-08T22:36:34.394Z,9.40
2022-12-08T22:39:21.109Z,9.57
2022-12-08T22:42:07.656Z,9.30
2022-12-08T22:44:54.199Z,8.20
2022-12-08T22:47:40.657Z,8.63
2022-12-08T22:50:27.464Z,8.73
2022-12-08T22:53:14.022Z,9.33
2022-12-08T22:56:00.533Z,9.90
2022-12-08T22:58:47.054Z,10.57
2022-12-08T23:01:33.673Z,10.53
2022-12-08T23:04:20.367Z,9.80
2022-12-08T23:07:06.990Z,9.33
2022-12-08T23:09:53.632Z,9.40
2022-12-08T23:12:40.294Z,9.30
2022-12-08T23:15:26.869Z,9.37
2022-12-08T23:18:13.472Z,8.60
2022-12-08T23:21:00.073Z,9.57
2022-12-08T23:23:46.667Z,7.00
2022-12-08T23:26:33.257Z,8.10
2022-12-08T23:29:19.804Z,6.47
2022-12-08T23:32:06.457Z,8.03
2022-12-08T23:34:53.034Z,7.63
2022-12-08T23:37:39.698Z,7.70
2022-12-08T23:40:26.294Z,8.67
2022-12-08T23:43:12.865Z,8.13
2022-12-08T23:45:59.687Z,7.90
2022-12-08T23:48:46.414Z,8.03
2022-12-08T23:51:32.949Z,9.50
2022-12-08T23:54:19.505Z,7.27
2022-12-08T23:57:06.021Z,7.40
2022-12-08T23:59:52.573Z,7.90
